createdAt,value
2022-10-13T00:01:48.286Z,9.50
2022-10-13T00:04:14.912Z,9.40
2022-10-13T00:06:41.426Z,9.50
2022-10-13T00:09:07.957Z,9.50
2022-10-13T00:11:34.494Z,9.60
2022-10-13T00:14:03.201Z,9.50
2022-10-13T00:16:31.477Z,9.50
2022-10-13T00:18:58.222Z,9.50
2022-10-13T00:21:26.702Z,9.40
2022-10-13T00:23:54.142Z,9.40
2022-10-13T00:26:23.311Z,9.50
2022-10-13T00:28:52.729Z,9.60
2022-10-13T00:31:22.753Z,9.70
2022-10-13T00:33:49.684Z,9.70
2022-10-13T00:36:16.741Z,9.80
2022-10-13T00:38:43.727Z,9.90
2022-10-13T00:41:10.721Z,9.80
2022-10-13T00:44:06.525Z,9.80
2022-10-13T00:46:37.079Z,9.80
2022-10-13T00:49:09.430Z,9.80
2022-10-13T00:51:41.756Z,9.80
2022-10-13T00:54:10.831Z,9.80
2022-10-13T00:56:39.155Z,9.90
2022-10-13T00:59:22.716Z,10.00
2022-10-13T01:01:52.641Z,9.90
2022-10-13T01:04:22.578Z,9.80
2022-10-13T01:06:49.700Z,9.70
2022-10-13T01:09:16.294Z,9.70
2022-10-13T01:11:58.981Z,9.70
2022-10-13T01:14:49.617Z,9.70
2022-10-13T01:17:23.634Z,9.70
2022-10-13T01:20:15.778Z,9.60
2022-10-13T01:23:00.402Z,9.60
2022-10-13T01:25:48.624Z,9.60
2022-10-13T01:28:26.323Z,9.50
2022-10-13T01:31:07.125Z,9.50
2022-10-13T01:33:52.498Z,9.50
2022-10-13T01:36:35.543Z,9.50
2022-10-13T01:39:23.049Z,9.50
2022-10-13T01:41:54.028Z,9.40
2022-10-13T01:44:32.504Z,9.40
2022-10-13T01:47:01.142Z,9.40
2022-10-13T01:49:31.943Z,9.50
2022-10-13T01:52:03.630Z,9.60
2022-10-13T01:54:32.456Z,9.50
2022-10-13T01:56:59.207Z,9.50
2022-10-13T01:59:29.146Z,9.50
2022-10-13T02:02:00.983Z,9.50
2022-10-13T02:04:53.849Z,9.50
2022-10-13T02:07:38.743Z,9.50
2022-10-13T02:10:08.329Z,9.50
2022-10-13T02:12:56.524Z,9.60
2022-10-13T02:15:30.479Z,9.50
2022-10-13T02:17:58.070Z,9.50
2022-10-13T02:20:24.638Z,9.50
2022-10-13T02:22:57.306Z,9.50
2022-10-13T02:25:24.838Z,9.50
2022-10-13T02:27:52.756Z,9.40
2022-10-13T02:30:24.974Z,9.50
2022-10-13T02:32:51.822Z,9.40
2022-10-13T02:35:18.659Z,9.50
2022-10-13T02:37:45.207Z,9.40
2022-10-13T02:40:12.396Z,9.40
2022-10-13T02:42:39.065Z,9.40
2022-10-13T02:45:06.271Z,9.30
2022-10-13T02:47:32.782Z,9.30
2022-10-13T02:49:59.320Z,9.20
2022-10-13T02:52:25.817Z,9.20
2022-10-13T02:54:52.490Z,9.20
2022-10-13T02:57:19.102Z,9.20
2022-10-13T02:59:45.794Z,9.20
2022-10-13T03:02:12.382Z,9.30
2022-10-13T03:04:38.946Z,9.20
2022-10-13T03:07:05.450Z,9.20
2022-10-13T03:09:32.127Z,9.30
2022-10-13T03:11:58.815Z,9.10
2022-10-13T03:14:25.374Z,9.00
2022-10-13T03:16:52.007Z,9.10
2022-10-13T03:19:18.566Z,9.30
2022-10-13T03:21:45.281Z,9.30
2022-10-13T03:24:11.863Z,9.30
2022-10-13T03:26:38.350Z,9.30
2022-10-13T03:29:04.994Z,9.30
2022-10-13T03:31:31.704Z,9.30
2022-10-13T03:33:58.241Z,9.30
2022-10-13T03:36:24.896Z,9.30
2022-10-13T03:38:51.406Z,9.30
2022-10-13T03:41:19.227Z,9.40
2022-10-13T03:43:45.767Z,9.30
2022-10-13T03:46:14.570Z,9.30
2022-10-13T03:48:41.182Z,9.30
2022-10-13T03:51:19.175Z,9.20
2022-10-13T03:53:47.137Z,9.20
2022-10-13T03:56:22.654Z,9.10
2022-10-13T03:58:54.484Z,9.10
2022-10-13T04:01:26.898Z,9.10
2022-10-13T04:03:55.422Z,9.10
2022-10-13T04:06:22.927Z,9.20
2022-10-13T04:08:50.181Z,9.20
2022-10-13T04:11:17.470Z,9.30
2022-10-13T04:13:44.671Z,9.30
2022-10-13T04:16:23.838Z,9.30
2022-10-13T04:18:53.102Z,9.30
2022-10-13T04:21:20.171Z,9.30
2022-10-13T04:23:46.741Z,9.30
2022-10-13T04:26:18.670Z,9.40
2022-10-13T04:28:46.935Z,9.40
2022-10-13T04:31:13.802Z,9.50
2022-10-13T04:33:40.793Z,9.50
2022-10-13T04:36:09.236Z,9.50
2022-10-13T04:38:35.836Z,9.40
2022-10-13T04:41:04.361Z,9.50
2022-10-13T04:43:31.532Z,9.60
2022-10-13T04:46:12.967Z,9.60
2022-10-13T04:48:39.718Z,9.60
2022-10-13T04:51:12.746Z,9.60
2022-10-13T04:53:40.309Z,9.60
2022-10-13T04:56:09.846Z,9.70
2022-10-13T04:58:37.489Z,9.80
2022-10-13T05:01:07.514Z,9.70
2022-10-13T05:03:34.718Z,9.80
2022-10-13T05:06:01.553Z,9.80
2022-10-13T05:08:28.203Z,9.90
2022-10-13T05:11:00.902Z,9.80
2022-10-13T05:13:29.289Z,9.70
2022-10-13T05:15:56.345Z,9.70
2022-10-13T05:18:23.262Z,9.70
2022-10-13T05:20:50.078Z,9.70
2022-10-13T05:23:16.849Z,9.70
2022-10-13T05:25:43.418Z,9.70
2022-10-13T05:28:09.959Z,9.70
2022-10-13T05:30:36.491Z,9.60
2022-10-13T05:33:03.058Z,9.70
2022-10-13T05:35:29.626Z,9.70
2022-10-13T05:37:56.184Z,9.70
2022-10-13T05:40:22.797Z,9.70
2022-10-13T05:42:50.696Z,9.60
2022-10-13T05:45:19.269Z,9.70
2022-10-13T05:47:45.877Z,9.70
2022-10-13T05:50:12.565Z,9.80
2022-10-13T05:52:39.275Z,9.80
2022-10-13T05:55:10.077Z,9.80
2022-10-13T05:57:40.976Z,9.80
2022-10-13T06:00:15.642Z,9.90
2022-10-13T06:03:05.516Z,9.90
2022-10-13T06:05:32.733Z,9.90
2022-10-13T06:07:59.993Z,9.90
2022-10-13T06:10:27.025Z,9.90
2022-10-13T06:12:53.688Z,9.90
2022-10-13T06:15:23.299Z,9.90
2022-10-13T06:17:52.364Z,9.90
2022-10-13T06:20:19.111Z,9.90
2022-10-13T06:22:46.314Z,9.90
2022-10-13T06:25:12.809Z,9.90
2022-10-13T06:27:39.496Z,9.90
2022-10-13T06:30:06.583Z,9.80
2022-10-13T06:32:33.244Z,9.80
2022-10-13T06:34:59.744Z,9.80
2022-10-13T06:37:27.649Z,9.90
2022-10-13T06:39:54.434Z,9.90
2022-10-13T06:42:21.361Z,10.00
2022-10-13T06:44:48.251Z,10.00
2022-10-13T06:47:14.818Z,10.00
2022-10-13T06:49:41.322Z,10.00
2022-10-13T06:52:08.745Z,10.10
2022-10-13T06:54:35.323Z,10.10
2022-10-13T06:57:01.961Z,10.10
2022-10-13T06:59:28.478Z,10.10
2022-10-13T07:01:55.061Z,10.10
2022-10-13T07:04:22.847Z,10.10
2022-10-13T07:06:50.767Z,10.10
2022-10-13T07:09:17.802Z,10.10
2022-10-13T07:11:45.510Z,10.10
2022-10-13T07:14:13.352Z,10.20
2022-10-13T07:16:40.854Z,10.00
2022-10-13T07:19:07.710Z,10.00
2022-10-13T07:21:34.250Z,10.00
2022-10-13T07:24:02.650Z,10.10
2022-10-13T07:26:29.449Z,10.20
2022-10-13T07:28:56.039Z,10.30
2022-10-13T07:31:22.648Z,10.20
2022-10-13T07:33:50.525Z,10.20
2022-10-13T07:36:18.132Z,10.20
2022-10-13T07:38:45.314Z,10.30
2022-10-13T07:41:12.590Z,10.40
2022-10-13T07:43:39.441Z,10.40
2022-10-13T07:46:07.788Z,10.40
2022-10-13T07:48:35.693Z,10.50
2022-10-13T07:51:11.919Z,10.60
2022-10-13T07:53:40.070Z,10.70
2022-10-13T07:56:10.358Z,10.80
2022-10-13T07:58:38.623Z,10.80
2022-10-13T08:01:05.281Z,10.90
2022-10-13T08:03:32.653Z,10.90
2022-10-13T08:06:01.236Z,10.90
2022-10-13T08:08:28.254Z,10.90
2022-10-13T08:10:56.126Z,10.90
2022-10-13T08:13:22.635Z,10.90
2022-10-13T08:15:49.207Z,10.90
2022-10-13T08:18:15.851Z,10.90
2022-10-13T08:20:44.093Z,11.00
2022-10-13T08:23:12.163Z,11.10
2022-10-13T08:25:43.333Z,11.10
2022-10-13T08:28:17.497Z,11.20
2022-10-13T08:30:44.220Z,11.30
2022-10-13T08:33:10.830Z,11.50
2022-10-13T08:35:37.978Z,11.50
2022-10-13T08:38:04.681Z,11.60
2022-10-13T08:40:31.674Z,11.70
2022-10-13T08:43:00.535Z,11.70
2022-10-13T08:45:45.359Z,11.80
2022-10-13T08:48:17.798Z,11.90
2022-10-13T08:50:47.578Z,11.90
2022-10-13T08:53:38.912Z,12.00
2022-10-13T08:56:08.625Z,12.10
2022-10-13T08:58:38.650Z,12.00
2022-10-13T09:01:15.282Z,12.00
2022-10-13T09:04:11.850Z,12.00
2022-10-13T09:06:44.176Z,12.20
2022-10-13T09:09:13.405Z,12.30
2022-10-13T09:11:45.819Z,12.30
2022-10-13T09:14:24.386Z,12.30
2022-10-13T09:16:52.506Z,12.40
2022-10-13T09:19:30.102Z,12.40
2022-10-13T09:22:12.874Z,12.40
2022-10-13T09:24:39.738Z,12.30
2022-10-13T09:27:14.027Z,12.30
2022-10-13T09:29:41.506Z,12.30
2022-10-13T09:32:16.144Z,12.30
2022-10-13T09:34:42.841Z,12.30
2022-10-13T09:37:28.052Z,12.40
2022-10-13T09:40:12.096Z,12.40
2022-10-13T09:42:39.122Z,12.30
2022-10-13T09:45:18.257Z,12.30
2022-10-13T09:47:54.718Z,12.40
2022-10-13T09:50:28.845Z,12.30
2022-10-13T09:53:20.300Z,12.30
2022-10-13T09:55:48.986Z,12.30
2022-10-13T09:58:22.404Z,12.30
2022-10-13T10:00:51.823Z,12.30
2022-10-13T10:03:41.594Z,12.30
2022-10-13T10:06:12.295Z,12.30
2022-10-13T10:09:02.714Z,12.30
2022-10-13T10:11:37.282Z,12.30
2022-10-13T10:14:25.257Z,12.30
2022-10-13T10:17:46.064Z,12.30
2022-10-13T10:20:18.299Z,12.30
2022-10-13T10:23:06.366Z,12.30
2022-10-13T10:25:44.603Z,12.40
2022-10-13T10:28:21.766Z,12.40
2022-10-13T10:31:30.018Z,12.50
2022-10-13T10:34:34.791Z,12.60
2022-10-13T10:37:25.114Z,12.70
2022-10-13T10:40:04.205Z,12.80
2022-10-13T10:42:54.011Z,12.90
2022-10-13T10:45:29.374Z,12.90
2022-10-13T10:48:11.582Z,13.00
2022-10-13T10:50:38.810Z,13.20
2022-10-13T10:53:25.828Z,13.40
2022-10-13T10:56:13.604Z,13.60
2022-10-13T10:59:21.913Z,13.50
2022-10-13T11:02:06.598Z,13.50
2022-10-13T11:04:41.590Z,13.40
2022-10-13T11:07:34.384Z,13.40
2022-10-13T11:10:03.884Z,13.40
2022-10-13T11:12:54.381Z,13.50
2022-10-13T11:15:27.548Z,13.60
2022-10-13T11:17:54.398Z,13.80
2022-10-13T11:20:20.861Z,14.10
2022-10-13T11:22:59.350Z,14.30
2022-10-13T11:25:39.876Z,14.40
2022-10-13T11:28:21.801Z,14.30
2022-10-13T11:30:57.290Z,14.40
2022-10-13T11:33:33.220Z,14.30
2022-10-13T11:36:37.772Z,14.40
2022-10-13T11:39:32.359Z,14.40
2022-10-13T11:42:07.978Z,14.50
2022-10-13T11:44:39.112Z,14.50
2022-10-13T11:47:27.275Z,14.70
2022-10-13T11:50:07.704Z,14.80
2022-10-13T11:52:37.611Z,14.90
2022-10-13T11:55:17.539Z,15.00
2022-10-13T11:57:44.131Z,15.20
2022-10-13T12:00:16.591Z,15.20
2022-10-13T12:02:52.014Z,15.20
2022-10-13T12:05:25.837Z,15.40
2022-10-13T12:07:55.330Z,15.50
2022-10-13T12:10:32.630Z,15.50
2022-10-13T12:13:00.170Z,15.50
2022-10-13T12:15:44.280Z,15.40
2022-10-13T12:18:23.598Z,15.40
2022-10-13T12:20:58.657Z,15.40
2022-10-13T12:23:26.666Z,15.50
2022-10-13T12:25:58.030Z,15.60
2022-10-13T12:28:30.838Z,15.60
2022-10-13T12:30:59.892Z,15.50
2022-10-13T12:33:31.005Z,15.50
2022-10-13T12:36:17.538Z,15.60
2022-10-13T12:38:49.346Z,15.50
2022-10-13T12:41:22.510Z,15.40
2022-10-13T12:43:50.871Z,15.40
2022-10-13T12:46:36.497Z,15.50
2022-10-13T12:49:07.009Z,15.50
2022-10-13T12:51:35.888Z,15.50
2022-10-13T12:54:16.813Z,15.50
2022-10-13T12:56:43.458Z,15.50
2022-10-13T12:59:18.019Z,15.50
2022-10-13T13:01:45.826Z,15.50
2022-10-13T13:04:21.292Z,15.60
2022-10-13T13:06:57.086Z,15.50
2022-10-13T13:09:25.382Z,15.50
2022-10-13T13:12:12.969Z,15.50
2022-10-13T13:14:42.689Z,15.40
2022-10-13T13:20:33.810Z,15.40
2022-10-13T13:23:00.635Z,15.40
2022-10-13T13:25:27.471Z,15.40
2022-10-13T13:27:54.280Z,15.30
2022-10-13T13:30:23.033Z,15.30
2022-10-13T13:32:49.993Z,15.30
2022-10-13T13:35:16.826Z,15.20
2022-10-13T13:37:48.758Z,15.30
2022-10-13T13:40:17.898Z,15.20
2022-10-13T13:42:44.511Z,15.30
2022-10-13T13:45:20.349Z,15.30
2022-10-13T13:47:47.399Z,15.40
2022-10-13T13:50:18.759Z,15.40
2022-10-13T13:52:45.360Z,15.40
2022-10-13T13:55:12.064Z,15.40
2022-10-13T13:57:38.565Z,15.40
2022-10-13T14:00:06.017Z,15.50
2022-10-13T14:02:32.513Z,15.50
2022-10-13T14:04:59.413Z,15.40
2022-10-13T14:07:26.503Z,15.40
2022-10-13T14:09:53.769Z,15.40
2022-10-13T14:12:22.474Z,15.40
2022-10-13T14:14:49.166Z,15.40
2022-10-13T14:17:15.725Z,15.40
2022-10-13T14:19:42.422Z,15.30
2022-10-13T14:22:09.665Z,15.30
2022-10-13T14:24:36.253Z,15.30
2022-10-13T14:27:02.848Z,15.30
2022-10-13T14:29:29.495Z,15.30
2022-10-13T14:31:56.110Z,15.30
2022-10-13T14:34:22.747Z,15.30
2022-10-13T14:36:49.337Z,15.20
2022-10-13T14:39:15.942Z,15.20
2022-10-13T14:41:42.473Z,15.30
2022-10-13T14:44:13.663Z,15.20
2022-10-13T14:46:41.320Z,15.10
2022-10-13T14:49:09.548Z,15.10
2022-10-13T14:51:36.146Z,15.10
2022-10-13T14:54:04.369Z,15.10
2022-10-13T14:56:31.380Z,15.00
2022-10-13T14:59:00.238Z,15.00
2022-10-13T15:01:27.988Z,15.00
2022-10-13T15:03:54.890Z,15.00
2022-10-13T15:06:23.908Z,15.00
2022-10-13T15:08:50.917Z,15.00
2022-10-13T15:11:19.490Z,15.00
2022-10-13T15:13:46.186Z,15.00
2022-10-13T15:16:21.004Z,15.00
2022-10-13T15:18:48.165Z,15.00
2022-10-13T15:21:15.776Z,14.90
2022-10-13T15:23:42.706Z,14.90
2022-10-13T15:26:11.378Z,14.90
2022-10-13T15:28:40.504Z,14.90
2022-10-13T15:31:07.231Z,14.90
2022-10-13T15:33:34.580Z,14.90
2022-10-13T15:36:01.369Z,14.80
2022-10-13T15:38:28.045Z,14.80
2022-10-13T15:41:00.422Z,14.80
2022-10-13T15:43:27.193Z,14.80
2022-10-13T15:45:56.400Z,14.80
2022-10-13T15:48:23.214Z,14.80
2022-10-13T15:50:49.870Z,14.80
2022-10-13T15:53:16.741Z,14.80
2022-10-13T15:55:43.447Z,14.80
2022-10-13T15:58:13.734Z,14.80
2022-10-13T16:00:41.265Z,14.70
2022-10-13T16:03:12.820Z,14.70
2022-10-13T16:05:41.470Z,14.70
2022-10-13T16:08:08.022Z,14.60
2022-10-13T16:10:34.542Z,14.60
2022-10-13T16:13:01.147Z,14.60
2022-10-13T16:15:29.027Z,14.60
2022-10-13T16:17:55.549Z,14.50
2022-10-13T16:20:22.165Z,14.50
2022-10-13T16:22:48.710Z,14.50
2022-10-13T16:25:15.446Z,14.40
2022-10-13T16:27:44.528Z,14.40
2022-10-13T16:30:11.694Z,14.40
2022-10-13T16:32:39.672Z,14.40
2022-10-13T16:35:07.188Z,14.40
2022-10-13T16:37:34.059Z,14.40
2022-10-13T16:40:00.678Z,14.30
2022-10-13T16:42:27.309Z,14.20
2022-10-13T16:44:53.930Z,14.20
2022-10-13T16:47:20.881Z,14.10
2022-10-13T16:49:47.754Z,14.10
2022-10-13T16:52:14.302Z,14.10
2022-10-13T16:54:40.799Z,14.10
2022-10-13T16:57:07.377Z,14.10
2022-10-13T16:59:33.966Z,14.00
2022-10-13T17:02:01.005Z,13.90
2022-10-13T17:04:28.758Z,13.90
2022-10-13T17:06:55.278Z,13.90
2022-10-13T17:09:21.863Z,13.90
2022-10-13T17:11:48.500Z,13.90
2022-10-13T17:14:15.118Z,13.90
2022-10-13T17:16:41.732Z,13.80
2022-10-13T17:19:09.096Z,13.80
2022-10-13T17:21:35.778Z,13.80
2022-10-13T17:24:02.406Z,13.80
2022-10-13T17:26:28.949Z,13.80
2022-10-13T17:28:55.550Z,13.80
2022-10-13T17:31:23.228Z,13.80
2022-10-13T17:33:50.672Z,13.70
2022-10-13T17:36:26.385Z,13.70
2022-10-13T17:38:55.464Z,13.70
2022-10-13T17:41:23.060Z,13.70
2022-10-13T17:43:51.724Z,13.70
2022-10-13T17:46:42.605Z,13.70
2022-10-13T17:49:12.373Z,13.70
2022-10-13T17:51:43.667Z,13.70
2022-10-13T17:54:15.320Z,13.70
2022-10-13T17:56:43.227Z,13.70
2022-10-13T17:59:10.112Z,13.60
2022-10-13T18:01:36.775Z,13.70
2022-10-13T18:04:11.635Z,13.60
2022-10-13T18:06:40.619Z,13.60
2022-10-13T18:09:09.770Z,13.60
2022-10-13T18:11:36.839Z,13.60
2022-10-13T18:14:03.832Z,13.60
2022-10-13T18:16:30.896Z,13.60
2022-10-13T18:18:57.510Z,13.60
2022-10-13T18:21:27.255Z,13.50
2022-10-13T18:23:55.746Z,13.50
2022-10-13T18:26:23.610Z,13.50
2022-10-13T18:28:51.687Z,13.50
2022-10-13T18:31:22.754Z,13.50
2022-10-13T18:33:49.594Z,13.50
2022-10-13T18:36:23.311Z,13.50
2022-10-13T18:38:50.764Z,13.50
2022-10-13T18:41:19.011Z,13.50
2022-10-13T18:43:45.705Z,13.50
2022-10-13T18:46:12.420Z,13.50
2022-10-13T18:48:40.540Z,13.50
2022-10-13T18:51:15.690Z,13.50
2022-10-13T18:53:44.715Z,13.60
2022-10-13T18:56:25.229Z,13.50
2022-10-13T18:58:58.440Z,13.60
2022-10-13T19:01:26.617Z,13.60
2022-10-13T19:03:54.309Z,13.60
2022-10-13T19:06:26.582Z,13.60
2022-10-13T19:09:04.678Z,13.60
2022-10-13T19:11:31.817Z,13.50
2022-10-13T19:13:59.714Z,13.60
2022-10-13T19:16:28.968Z,13.50
2022-10-13T19:18:55.901Z,13.60
2022-10-13T19:21:23.501Z,13.60
2022-10-13T19:23:50.535Z,13.60
2022-10-13T19:26:23.749Z,13.60
2022-10-13T19:28:54.967Z,13.60
2022-10-13T19:31:23.694Z,13.60
2022-10-13T19:33:50.879Z,13.60
2022-10-13T19:36:39.229Z,13.60
2022-10-13T19:39:28.266Z,13.60
2022-10-13T19:41:57.128Z,13.60
2022-10-13T19:44:24.866Z,13.60
2022-10-13T19:46:52.198Z,13.60
2022-10-13T19:49:21.237Z,13.50
2022-10-13T19:51:49.164Z,13.60
2022-10-13T19:54:17.255Z,13.60
2022-10-13T19:56:46.915Z,13.60
2022-10-13T19:59:14.272Z,13.60
2022-10-13T20:01:41.039Z,13.60
2022-10-13T20:04:08.545Z,13.70
2022-10-13T20:06:36.019Z,13.70
2022-10-13T20:09:02.987Z,13.70
2022-10-13T20:11:29.633Z,13.70
2022-10-13T20:13:56.438Z,13.70
2022-10-13T20:16:24.850Z,13.80
2022-10-13T20:18:56.510Z,13.70
2022-10-13T20:21:24.003Z,13.70
2022-10-13T20:23:50.728Z,13.70
2022-10-13T20:26:18.388Z,13.60
2022-10-13T20:28:46.232Z,13.70
2022-10-13T20:31:14.584Z,13.60
2022-10-13T20:33:41.823Z,13.60
2022-10-13T20:36:12.092Z,13.60
2022-10-13T20:38:38.877Z,13.60
2022-10-13T20:41:20.082Z,13.60
2022-10-13T20:43:47.654Z,13.60
2022-10-13T20:46:15.866Z,13.60
2022-10-13T20:49:13.793Z,13.60
2022-10-13T20:51:30.216Z,13.50
2022-10-13T20:53:57.321Z,13.50
2022-10-13T20:56:25.851Z,13.50
2022-10-13T20:58:52.834Z,13.50
2022-10-13T21:01:21.176Z,13.50
2022-10-13T21:03:54.722Z,13.50
2022-10-13T21:06:22.582Z,13.50
2022-10-13T21:08:49.225Z,13.50
2022-10-13T21:11:17.174Z,13.50
2022-10-13T21:13:44.364Z,13.50
2022-10-13T21:16:16.649Z,13.50
2022-10-13T21:18:50.553Z,13.50
2022-10-13T21:21:26.962Z,13.40
2022-10-13T21:23:58.227Z,13.40
2022-10-13T21:26:26.679Z,13.40
2022-10-13T21:28:53.269Z,13.40
2022-10-13T21:31:21.705Z,13.40
2022-10-13T21:33:48.815Z,13.40
2022-10-13T21:36:16.703Z,13.40
2022-10-13T21:38:44.814Z,13.30
2022-10-13T21:41:13.098Z,13.30
2022-10-13T21:43:40.389Z,13.30
2022-10-13T21:46:19.413Z,13.30
2022-10-13T21:48:47.277Z,13.30
2022-10-13T21:51:15.197Z,13.30
2022-10-13T21:53:42.130Z,13.30
2022-10-13T21:56:11.474Z,13.30
2022-10-13T21:58:38.626Z,13.30
2022-10-13T22:01:06.530Z,13.30
2022-10-13T22:03:34.646Z,13.30
2022-10-13T22:06:18.241Z,13.30
2022-10-13T22:08:47.435Z,13.30
2022-10-13T22:11:15.190Z,13.20
2022-10-13T22:13:42.027Z,13.30
2022-10-13T22:16:14.420Z,13.30
2022-10-13T22:18:41.358Z,13.20
2022-10-13T22:21:11.848Z,13.20
2022-10-13T22:23:38.457Z,13.20
2022-10-13T22:26:05.154Z,13.30
2022-10-13T22:28:36.842Z,13.30
2022-10-13T22:31:06.239Z,13.20
2022-10-13T22:33:35.206Z,13.20
2022-10-13T22:36:07.026Z,13.20
2022-10-13T22:38:33.565Z,13.20
2022-10-13T22:41:07.145Z,13.20
2022-10-13T22:43:34.669Z,13.20
2022-10-13T22:46:04.432Z,13.20
2022-10-13T22:48:34.740Z,13.20
2022-10-13T22:51:04.681Z,13.10
2022-10-13T22:53:32.000Z,13.10
2022-10-13T22:55:59.102Z,13.10
2022-10-13T22:58:25.809Z,13.10
2022-10-13T23:00:52.402Z,13.00
2022-10-13T23:03:19.557Z,13.00
2022-10-13T23:05:49.445Z,13.00
2022-10-13T23:08:16.054Z,12.90
2022-10-13T23:10:42.758Z,12.90
2022-10-13T23:13:09.256Z,12.90
2022-10-13T23:15:38.721Z,12.90
2022-10-13T23:18:05.648Z,12.90
2022-10-13T23:20:32.143Z,12.90
2022-10-13T23:22:58.625Z,12.90
2022-10-13T23:25:25.158Z,12.90
2022-10-13T23:27:51.640Z,12.90
2022-10-13T23:30:18.151Z,12.90
2022-10-13T23:32:44.654Z,12.90
2022-10-13T23:35:11.468Z,12.90
2022-10-13T23:37:37.953Z,12.90
2022-10-13T23:40:05.071Z,12.90
2022-10-13T23:42:31.574Z,12.90
2022-10-13T23:44:58.106Z,12.90
2022-10-13T23:47:24.629Z,12.90
2022-10-13T23:49:51.136Z,13.00
2022-10-13T23:52:19.491Z,13.00
2022-10-13T23:54:46.074Z,13.00
2022-10-13T23:57:12.585Z,13.00
2022-10-13T23:59:39.092Z,13.00
